Airport View

Enter AWOS ICAO identifier for current METAR.

ex. KFNL

KPDC 171238Z AUTO 12004KT 7SM BKN095 OVC120 02/M02 A2997 RMK AO2 T00161016

17 Nov 2019 12:37

Frequency: 119.925

Phone: 608-326-9122

Other Area AWOS: KOVS - KDEH - KY51 - KPVB

TAF KDBQ 171120Z 1712/1812 17011KT 6SM BR BKN100 FM171600 20008KT 4SM -SNRA BR OVC035 FM172100 29006KT P6SM SCT009 OVC020 FM180600 31007KT P6SM SCT025